Aviation Digital Data Service (ADDS)

Output produced by METARs form (0248 UTC 26 April 2015)
found at http://aviationweather.gov/adds/metars/
 
KPVD 252328Z 2600/2624 35010KT P6SM BKN070 
     FM260400 35005KT P6SM SCT070 
     FM261600 33008KT P6SM SCT060